YESP

Details ICAO YESP (EPR)
Name Esperance
Region Australia
Timezone Australia/Perth (UTC+8.0)
Plans Departing 6
Arriving 10
Stats Elevation 470 ft / 143 m (AMSL)
Location -33.683509° 121.823744°
Runways 2
Magnetic Variation 0.438° E
Sunrise 2017-12-17 20:38:57 UTC / 2017-12-18 04:38:57 Local
Sunset 2017-12-18 11:02:04 UTC / 2017-12-18 19:02:04 Local
Advertisement - Login to hide

Runways

ID Width Length Bearing (true) Bearing (mag) Surface Threshold Offset Overrun Length
03 115 ft / 35 m 4,210 ft / 1,283 m 28.73° 28.29° Dirt 0 ft / 0 m 0 ft / 0 m
11 98 ft / 30 m 4,914 ft / 1,498 m 111.10° 110.66° Asphalt 0 ft / 0 m 0 ft / 0 m
21 115 ft / 35 m 4,210 ft / 1,283 m 208.73° 208.29° Dirt 0 ft / 0 m 0 ft / 0 m
29 98 ft / 30 m 4,914 ft / 1,498 m 291.10° 290.66° Asphalt 0 ft / 0 m 0 ft / 0 m

Map

Weather


0- 5 10 15 20 25 30 35+ Temperature / ° C

Clouds and Precipitation
Forecast for 2017-12-18 06:00 UTC. Updated 5 minutes ago

Ground ~20,000 ft ~40,000 ft Winds

METAR

YESP 180100Z AUTO 30025KT 9999 // SCT043 SCT050 19/06 Q0997

TAF

Not found

Frequencies

Unicom 121.30 MHz ACTIVATE LIGHTS ONLY MULT
Unicom 119.80 MHz MELBOURNE CENTRE MULT
Unicom 126.70 MHz ESPERANCE MULT
Tower 123.30 MHz ESPERANCE TWR
Warning: Do not use this data for real-world aviation or navigation. No guarantee of current accuracy is given.